LOWL/LNZ METAR and TAF weather

Enter ICAO airport designator
Station Type Date Time Source
LOWL METAR 2021/01/27 13:50 UTC NOAA

LOWL 271350Z 31005KT 9999 FEW032 02/M03 Q1015 R08/29//95 NOSIG


Station Type Date Time Source
LOWL Decoded METAR 2021/01/27 13:50 UTC NOAA

Linz / Hoersching-Flughafen, Austria (LOWL) 48-14N 014-11E 313M
Jan 27, 2021 - 08:50 AM EST / 2021.01.27 1350 UTC
Wind: from the NW (310 degrees) at 6 MPH (5 KT):0
Visibility: greater than 7 mile(s):0
Sky conditions: mostly clear
Temperature: 35 F (2 C)
Windchill: 30 F (-1 C):1
Dew Point: 26 F (-3 C)
Relative Humidity: 69%
Pressure (altimeter): 29.97 in. Hg (1015 hPa)
ob: LOWL 271350Z 31005KT 9999 FEW032 02/M03 Q1015 R08/29//95 NOSIG
cycle: 14

Station Type Date Time Source
LOWL TAF 2021/01/27 12:00 UTC NOAA

TAF LOWL 271115Z 2712/2812 VRB03KT 9999 FEW040 TX02/2811Z TNM02/2719Z
BECMG 2716/2718 -SN SCT012 BKN020 PROB30
TEMPO 2718/2806 1200 SN BKN006
BECMG 2806/2808 NSW
TEMPO 2809/2812 -RA PROB30
TEMPO 2809/2811 RASN

Example: see airport list